createdAt,value
2019-01-27T00:01:50.744Z,68.20
2019-01-27T00:04:22.145Z,68.10
2019-01-27T00:06:53.492Z,68.10
2019-01-27T00:09:25.861Z,68.10
2019-01-27T00:11:57.214Z,68.10
2019-01-27T00:14:29.441Z,68.10
2019-01-27T00:17:00.801Z,68.10
2019-01-27T00:19:32.160Z,68.00
2019-01-27T00:22:03.514Z,67.90
2019-01-27T00:24:34.877Z,67.90
2019-01-27T00:27:06.257Z,68.00
2019-01-27T00:29:37.646Z,67.90
2019-01-27T00:32:09.024Z,68.00
2019-01-27T00:34:40.433Z,68.00
2019-01-27T00:37:12.084Z,68.00
2019-01-27T00:39:43.441Z,67.90
2019-01-27T00:42:14.796Z,67.80
2019-01-27T00:44:47.031Z,67.80
2019-01-27T00:47:18.380Z,67.80
2019-01-27T00:49:49.752Z,67.80
2019-01-27T00:52:21.080Z,67.80
2019-01-27T00:54:52.475Z,67.70
2019-01-27T00:57:23.866Z,67.70
2019-01-27T00:59:55.264Z,67.60
2019-01-27T01:02:27.819Z,67.60
2019-01-27T01:04:59.206Z,67.60
2019-01-27T01:07:30.593Z,67.50
2019-01-27T01:10:02.025Z,67.50
2019-01-27T01:12:33.466Z,67.50
2019-01-27T01:15:05.724Z,67.40
2019-01-27T01:17:37.084Z,67.50
2019-01-27T01:20:10.721Z,67.40
2019-01-27T01:22:42.168Z,67.50
2019-01-27T01:25:16.404Z,67.50
2019-01-27T01:27:48.009Z,67.40
2019-01-27T01:30:21.487Z,67.30
2019-01-27T01:32:52.807Z,67.30
2019-01-27T01:35:24.216Z,67.40
2019-01-27T01:37:55.663Z,67.40
2019-01-27T01:40:27.037Z,67.40
2019-01-27T01:42:58.409Z,67.30
2019-01-27T01:45:31.889Z,67.40
2019-01-27T01:48:03.589Z,67.40
2019-01-27T01:50:35.064Z,67.30
2019-01-27T01:53:06.413Z,67.30
2019-01-27T01:55:37.809Z,67.20
2019-01-27T01:58:09.164Z,67.10
2019-01-27T02:00:40.549Z,67.10
2019-01-27T02:03:11.884Z,67.10
2019-01-27T02:05:43.280Z,67.20
2019-01-27T02:08:14.613Z,67.20
2019-01-27T02:10:46.000Z,67.20
2019-01-27T02:13:17.437Z,67.10
2019-01-27T02:16:00.070Z,67.00
2019-01-27T02:18:31.693Z,67.00
2019-01-27T02:21:03.107Z,67.10
2019-01-27T02:23:34.521Z,67.10
2019-01-27T02:26:08.146Z,66.90
2019-01-27T02:28:40.461Z,66.80
2019-01-27T02:31:11.850Z,66.70
2019-01-27T02:33:43.197Z,66.70
2019-01-27T02:36:14.733Z,66.80
2019-01-27T02:38:46.068Z,66.90
2019-01-27T02:41:17.693Z,66.90
2019-01-27T02:43:49.028Z,67.00
2019-01-27T02:46:20.396Z,66.80
2019-01-27T02:48:51.741Z,66.90
2019-01-27T02:51:23.132Z,66.90
2019-01-27T02:53:54.396Z,66.80
2019-01-27T02:56:25.765Z,66.70
2019-01-27T02:58:57.117Z,66.70
2019-01-27T03:01:28.484Z,66.70
2019-01-27T03:03:59.841Z,66.70
2019-01-27T03:06:39.251Z,66.60
2019-01-27T03:09:25.889Z,66.70
2019-01-27T03:11:57.325Z,66.70
2019-01-27T03:14:28.687Z,66.60
2019-01-27T03:17:00.142Z,66.70
2019-01-27T03:19:31.489Z,66.70
2019-01-27T03:22:02.889Z,66.70
2019-01-27T03:24:34.233Z,66.80
2019-01-27T03:27:05.752Z,66.60
2019-01-27T03:29:37.099Z,66.50
2019-01-27T03:32:08.397Z,66.70
2019-01-27T03:34:39.744Z,66.60
2019-01-27T03:37:11.112Z,66.40
2019-01-27T03:39:42.469Z,66.40
2019-01-27T03:42:13.876Z,66.40
2019-01-27T03:44:45.227Z,66.40
2019-01-27T03:47:16.637Z,66.50
2019-01-27T03:49:48.007Z,66.50
2019-01-27T03:52:20.286Z,66.50
2019-01-27T03:54:51.568Z,66.50
2019-01-27T03:57:22.919Z,66.50
2019-01-27T03:59:54.281Z,66.50
2019-01-27T04:02:25.643Z,66.50
2019-01-27T04:04:57.042Z,66.40
2019-01-27T04:07:28.401Z,66.30
2019-01-27T04:09:59.756Z,66.40
2019-01-27T04:12:31.142Z,66.10
2019-01-27T04:15:02.434Z,66.30
2019-01-27T04:17:33.737Z,66.30
2019-01-27T04:20:06.805Z,66.30
2019-01-27T04:22:38.184Z,66.30
2019-01-27T04:25:09.736Z,66.20
2019-01-27T04:27:41.020Z,66.30
2019-01-27T04:30:25.388Z,66.20
2019-01-27T04:32:56.775Z,66.00
2019-01-27T04:35:28.164Z,66.00
2019-01-27T04:37:59.648Z,66.00
2019-01-27T04:40:31.806Z,66.00
2019-01-27T04:43:03.204Z,66.00
2019-01-27T04:45:36.297Z,65.90
2019-01-27T04:48:08.682Z,65.80
2019-01-27T04:50:40.110Z,65.80
2019-01-27T04:53:11.501Z,65.70
2019-01-27T04:55:42.799Z,65.80
2019-01-27T04:58:14.093Z,65.90
2019-01-27T05:00:45.441Z,65.90
2019-01-27T05:03:31.134Z,65.90
2019-01-27T05:06:02.484Z,65.90
2019-01-27T05:08:33.869Z,65.80
2019-01-27T05:11:05.303Z,65.70
2019-01-27T05:13:36.691Z,65.60
2019-01-27T05:16:08.072Z,65.70
2019-01-27T05:18:39.364Z,65.70
2019-01-27T05:21:10.716Z,65.70
2019-01-27T05:23:42.115Z,65.60
2019-01-27T05:26:13.401Z,65.70
2019-01-27T05:28:44.760Z,65.70
2019-01-27T05:31:16.145Z,65.70
2019-01-27T05:33:47.444Z,65.50
2019-01-27T05:36:18.865Z,65.70
2019-01-27T05:38:50.207Z,65.70
2019-01-27T05:41:21.501Z,65.70
2019-01-27T05:43:52.902Z,65.70
2019-01-27T05:46:24.252Z,65.80
2019-01-27T05:48:55.580Z,65.80
2019-01-27T05:51:26.940Z,65.80
2019-01-27T05:53:58.362Z,65.80
2019-01-27T05:56:29.679Z,65.90
2019-01-27T05:59:01.048Z,65.90
2019-01-27T06:01:32.481Z,65.80
2019-01-27T06:04:03.983Z,65.80
2019-01-27T06:06:35.337Z,65.80
2019-01-27T06:09:08.519Z,65.90
2019-01-27T06:11:40.073Z,65.80
2019-01-27T06:14:12.891Z,65.70
2019-01-27T06:16:44.245Z,65.70
2019-01-27T06:19:15.557Z,65.70
2019-01-27T06:21:47.008Z,65.60
2019-01-27T06:24:18.381Z,65.50
2019-01-27T06:26:49.778Z,65.50
2019-01-27T06:29:21.204Z,65.50
2019-01-27T06:31:52.480Z,65.50
2019-01-27T06:34:24.089Z,65.50
2019-01-27T06:36:55.697Z,65.50
2019-01-27T06:39:27.328Z,65.50
2019-01-27T06:41:58.537Z,65.50
2019-01-27T06:44:29.971Z,65.50
2019-01-27T06:47:02.372Z,65.50
2019-01-27T06:49:34.110Z,65.60
2019-01-27T06:52:06.231Z,65.60
2019-01-27T06:54:37.845Z,65.70
2019-01-27T06:57:11.591Z,65.70
2019-01-27T06:59:53.433Z,65.70
2019-01-27T07:02:38.268Z,66.70
2019-01-27T07:05:30.759Z,65.90
2019-01-27T07:08:10.959Z,66.00
2019-01-27T07:11:01.440Z,66.00
2019-01-27T07:13:42.881Z,66.00
2019-01-27T07:16:25.712Z,66.10
2019-01-27T07:19:22.303Z,66.00
2019-01-27T07:22:11.413Z,66.10
2019-01-27T07:25:02.432Z,66.30
2019-01-27T07:27:55.932Z,66.10
2019-01-27T07:30:49.222Z,66.30
2019-01-27T07:33:39.257Z,66.40
2019-01-27T07:36:32.689Z,66.40
2019-01-27T07:39:20.531Z,66.50
2019-01-27T07:42:08.283Z,66.40
2019-01-27T07:44:51.247Z,66.60
2019-01-27T07:47:56.667Z,66.60
2019-01-27T07:51:01.945Z,66.80
2019-01-27T07:53:52.397Z,66.80
2019-01-27T07:56:57.729Z,66.90
2019-01-27T07:59:48.213Z,66.90
2019-01-27T08:02:41.537Z,66.90
2019-01-27T08:05:23.613Z,67.00
2019-01-27T08:08:01.489Z,67.00
2019-01-27T08:10:55.043Z,67.00
2019-01-27T08:13:33.589Z,67.00
2019-01-27T08:16:30.067Z,67.00
2019-01-27T08:19:38.504Z,66.90
2019-01-27T08:22:34.308Z,66.90
2019-01-27T08:25:25.677Z,67.10
2019-01-27T08:28:28.000Z,67.10
2019-01-27T08:31:18.650Z,67.20
2019-01-27T08:34:07.481Z,67.10
2019-01-27T08:37:10.196Z,67.10
2019-01-27T08:39:52.605Z,67.20
2019-01-27T08:42:52.180Z,67.20
2019-01-27T08:45:43.717Z,67.30
2019-01-27T08:48:15.089Z,67.40
2019-01-27T08:50:46.465Z,67.50
2019-01-27T08:53:17.861Z,67.50
2019-01-27T08:55:49.320Z,67.60
2019-01-27T08:58:20.781Z,67.60
2019-01-27T09:01:00.323Z,67.70
2019-01-27T09:03:38.280Z,67.60
2019-01-27T09:06:34.579Z,67.50
2019-01-27T09:09:26.163Z,67.60
2019-01-27T09:12:31.822Z,67.60
2019-01-27T09:15:12.281Z,67.60
2019-01-27T09:17:55.729Z,67.70
2019-01-27T09:20:49.204Z,67.60
2019-01-27T09:23:33.505Z,67.60
2019-01-27T09:26:21.969Z,67.60
2019-01-27T09:29:08.158Z,67.50
2019-01-27T09:32:13.542Z,67.50
2019-01-27T09:35:02.732Z,67.40
2019-01-27T09:37:49.794Z,67.40
2019-01-27T09:40:46.110Z,67.30
2019-01-27T09:43:24.894Z,67.70
2019-01-27T09:46:24.091Z,67.30
2019-01-27T09:49:12.990Z,67.40
2019-01-27T09:52:01.806Z,67.40
2019-01-27T09:54:52.236Z,67.60
2019-01-27T09:57:48.537Z,67.60
2019-01-27T10:00:37.499Z,67.70
2019-01-27T10:03:46.209Z,67.80
2019-01-27T10:06:33.797Z,67.70
2019-01-27T10:09:43.093Z,67.70
2019-01-27T10:12:33.539Z,67.80
2019-01-27T10:15:31.473Z,67.80
2019-01-27T10:18:18.995Z,67.80
2019-01-27T10:21:12.461Z,67.80
2019-01-27T10:24:09.112Z,67.90
2019-01-27T10:27:14.836Z,68.00
2019-01-27T10:30:17.385Z,67.90
2019-01-27T10:33:13.607Z,67.90
2019-01-27T10:36:09.832Z,67.80
2019-01-27T10:39:03.267Z,67.80
2019-01-27T10:41:49.628Z,67.80
2019-01-27T10:44:44.475Z,67.80
2019-01-27T10:47:44.828Z,67.70
2019-01-27T10:50:40.998Z,67.60
2019-01-27T10:53:20.868Z,67.60
2019-01-27T10:56:06.437Z,67.40
2019-01-27T10:58:59.901Z,67.50
2019-01-27T11:01:41.658Z,67.50
2019-01-27T11:04:42.413Z,67.50
2019-01-27T11:07:32.613Z,67.50
2019-01-27T11:10:16.684Z,67.60
2019-01-27T11:13:16.294Z,67.70
2019-01-27T11:15:58.206Z,67.70
2019-01-27T11:18:57.890Z,67.70
2019-01-27T11:21:41.719Z,67.60
2019-01-27T11:24:19.596Z,67.50
2019-01-27T11:27:15.982Z,67.50
2019-01-27T11:30:06.310Z,67.50
2019-01-27T11:32:59.930Z,67.30
2019-01-27T11:35:50.544Z,67.00
2019-01-27T11:38:50.197Z,68.10
2019-01-27T11:41:40.587Z,67.70
2019-01-27T11:44:29.356Z,66.00
2019-01-27T11:47:18.220Z,65.60
2019-01-27T11:49:58.464Z,65.00
2019-01-27T11:52:42.160Z,63.10
2019-01-27T11:55:13.543Z,62.10
2019-01-27T11:57:45.028Z,62.20
2019-01-27T12:00:19.320Z,62.40
2019-01-27T12:02:50.705Z,62.30
2019-01-27T12:05:22.234Z,62.30
2019-01-27T12:07:53.505Z,62.00
2019-01-27T12:10:24.901Z,60.70
2019-01-27T12:12:56.269Z,61.80
2019-01-27T12:15:27.657Z,62.60
2019-01-27T12:17:58.976Z,62.30
2019-01-27T12:20:30.477Z,62.60
2019-01-27T12:23:01.848Z,61.50
2019-01-27T12:25:33.211Z,62.70
2019-01-27T12:28:04.715Z,60.30
2019-01-27T12:30:36.144Z,57.40
2019-01-27T12:33:08.490Z,55.60
2019-01-27T12:35:39.855Z,55.00
2019-01-27T12:38:11.200Z,53.90
2019-01-27T12:40:42.579Z,54.20
2019-01-27T12:43:13.976Z,54.40
2019-01-27T12:45:46.080Z,54.30
2019-01-27T12:48:17.572Z,52.20
2019-01-27T12:50:48.889Z,51.90
2019-01-27T12:53:20.366Z,51.80
2019-01-27T12:55:51.878Z,51.70
2019-01-27T12:58:23.439Z,51.10
2019-01-27T13:01:04.837Z,51.10
2019-01-27T13:03:36.342Z,50.90
2019-01-27T13:06:07.861Z,51.50
2019-01-27T13:08:39.216Z,51.10
2019-01-27T13:11:10.518Z,51.30
2019-01-27T13:13:41.945Z,51.10
2019-01-27T13:16:13.319Z,51.50
2019-01-27T13:18:44.665Z,51.10
2019-01-27T13:21:16.056Z,50.60
2019-01-27T13:23:47.422Z,50.40
2019-01-27T13:26:18.804Z,50.20
2019-01-27T13:28:50.153Z,50.00
2019-01-27T13:31:21.620Z,50.10
2019-01-27T13:33:52.997Z,49.80
2019-01-27T13:36:25.517Z,50.10
2019-01-27T13:38:58.452Z,50.80
2019-01-27T13:41:29.793Z,50.90
2019-01-27T13:44:01.252Z,50.90
2019-01-27T13:46:32.688Z,51.60
2019-01-27T13:49:04.065Z,51.90
2019-01-27T13:51:35.469Z,51.70
2019-01-27T13:54:06.938Z,51.90
2019-01-27T13:56:38.236Z,52.00
2019-01-27T13:59:09.624Z,52.20
2019-01-27T14:01:41.956Z,52.50
2019-01-27T14:04:13.334Z,52.30
2019-01-27T14:06:45.581Z,52.60
2019-01-27T14:09:16.974Z,52.90
2019-01-27T14:11:48.321Z,53.20
2019-01-27T14:14:19.777Z,53.20
2019-01-27T14:16:52.705Z,53.40
2019-01-27T14:19:24.186Z,53.40
2019-01-27T14:21:55.589Z,53.70
2019-01-27T14:24:26.957Z,53.70
2019-01-27T14:26:58.272Z,53.80
2019-01-27T14:29:29.624Z,54.00
2019-01-27T14:32:01.014Z,54.10
2019-01-27T14:34:32.293Z,54.40
2019-01-27T14:37:03.621Z,54.60
2019-01-27T14:39:35.185Z,54.80
2019-01-27T14:42:06.663Z,55.00
2019-01-27T14:44:38.037Z,55.10
2019-01-27T14:47:09.549Z,55.30
2019-01-27T14:49:41.521Z,55.40
2019-01-27T14:52:12.897Z,55.30
2019-01-27T14:54:44.265Z,55.40
2019-01-27T14:57:15.641Z,55.40
2019-01-27T14:59:46.980Z,55.60
2019-01-27T15:02:18.369Z,55.60
2019-01-27T15:04:49.707Z,55.60
2019-01-27T15:07:21.248Z,55.40
2019-01-27T15:09:52.595Z,55.20
2019-01-27T15:12:23.903Z,55.10
2019-01-27T15:14:55.700Z,55.30
2019-01-27T15:17:27.091Z,55.20
2019-01-27T15:19:58.919Z,55.30
2019-01-27T15:22:30.631Z,55.40
2019-01-27T15:25:01.997Z,55.40
2019-01-27T15:27:33.550Z,55.20
2019-01-27T15:30:06.618Z,55.20
2019-01-27T15:32:38.148Z,55.20
2019-01-27T15:35:09.953Z,55.40
2019-01-27T15:37:41.510Z,55.10
2019-01-27T15:40:13.400Z,55.10
2019-01-27T15:42:44.862Z,55.20
2019-01-27T15:45:18.663Z,55.20
2019-01-27T15:47:50.048Z,55.30
2019-01-27T15:50:22.948Z,55.50
2019-01-27T15:52:54.320Z,55.70
2019-01-27T15:55:26.859Z,56.10
2019-01-27T15:57:58.228Z,56.20
2019-01-27T16:00:30.725Z,56.20
2019-01-27T16:03:02.147Z,56.30
2019-01-27T16:05:33.597Z,56.40
2019-01-27T16:08:05.966Z,56.60
2019-01-27T16:10:37.349Z,56.50
2019-01-27T16:13:08.749Z,56.70
2019-01-27T16:15:40.184Z,56.80
2019-01-27T16:18:11.581Z,56.80
2019-01-27T16:20:42.924Z,56.80
2019-01-27T16:23:33.378Z,57.00
2019-01-27T16:26:04.871Z,57.00
2019-01-27T16:28:36.460Z,57.00
2019-01-27T16:31:26.858Z,57.00
2019-01-27T16:34:06.267Z,57.00
2019-01-27T16:36:37.633Z,57.10
2019-01-27T16:39:11.304Z,57.10
2019-01-27T16:41:42.636Z,57.20
2019-01-27T16:44:14.294Z,57.20
2019-01-27T16:46:45.660Z,57.10
2019-01-27T16:49:17.071Z,57.20
2019-01-27T16:51:49.391Z,57.40
2019-01-27T16:54:20.920Z,57.40
2019-01-27T16:56:52.302Z,57.60
2019-01-27T16:59:23.596Z,57.70
2019-01-27T17:01:58.964Z,57.80
2019-01-27T17:04:28.064Z,57.80
2019-01-27T17:06:59.462Z,58.00
2019-01-27T17:09:30.959Z,57.90
2019-01-27T17:12:02.324Z,58.00
2019-01-27T17:14:33.708Z,58.00
2019-01-27T17:17:05.284Z,58.00
2019-01-27T17:19:36.794Z,58.00
2019-01-27T17:22:08.100Z,58.00
2019-01-27T17:24:39.464Z,58.10
2019-01-27T17:27:10.930Z,58.00
2019-01-27T17:29:42.734Z,58.10
2019-01-27T17:32:14.220Z,58.20
2019-01-27T17:34:45.651Z,58.20
2019-01-27T17:37:16.929Z,58.30
2019-01-27T17:39:48.309Z,58.30
2019-01-27T17:42:19.653Z,58.40
2019-01-27T17:44:51.078Z,58.40
2019-01-27T17:47:22.429Z,58.50
2019-01-27T17:49:53.838Z,58.60
2019-01-27T17:52:25.112Z,58.60
2019-01-27T17:54:56.509Z,58.60
2019-01-27T17:57:47.083Z,58.70
2019-01-27T18:00:36.016Z,58.80
2019-01-27T18:03:13.655Z,58.80
2019-01-27T18:05:58.580Z,58.80
2019-01-27T18:08:39.874Z,58.90
2019-01-27T18:11:25.545Z,58.90
2019-01-27T18:14:01.967Z,59.00
2019-01-27T18:16:33.359Z,59.00
2019-01-27T18:19:04.711Z,59.10
2019-01-27T18:21:36.113Z,59.10
2019-01-27T18:24:07.454Z,59.20
2019-01-27T18:26:38.946Z,59.10
2019-01-27T18:29:10.308Z,59.10
2019-01-27T18:31:41.718Z,59.00
2019-01-27T18:34:13.061Z,59.00
2019-01-27T18:36:44.540Z,59.20
2019-01-27T18:39:16.081Z,59.20
2019-01-27T18:41:47.442Z,59.20
2019-01-27T18:44:18.773Z,59.30
2019-01-27T18:46:51.129Z,59.30
2019-01-27T18:49:22.474Z,59.30
2019-01-27T18:51:53.897Z,59.30
2019-01-27T18:54:41.586Z,59.40
2019-01-27T18:57:18.261Z,59.40
2019-01-27T18:59:59.995Z,59.30
2019-01-27T19:03:08.416Z,59.30
2019-01-27T19:05:59.006Z,59.30
2019-01-27T19:08:44.316Z,59.40
2019-01-27T19:11:34.729Z,59.30
2019-01-27T19:14:13.670Z,59.40
2019-01-27T19:17:02.804Z,59.40
2019-01-27T19:19:41.894Z,59.30
2019-01-27T19:22:20.476Z,59.30
2019-01-27T19:25:09.312Z,59.30
2019-01-27T19:27:50.192Z,59.30
2019-01-27T19:30:29.261Z,59.30
2019-01-27T19:33:06.864Z,59.30
2019-01-27T19:35:45.206Z,59.50
2019-01-27T19:38:25.627Z,59.50
2019-01-27T19:41:11.092Z,59.60
2019-01-27T19:43:48.875Z,59.60
2019-01-27T19:46:38.824Z,59.60
2019-01-27T19:49:41.156Z,59.60
2019-01-27T19:52:40.357Z,59.60
2019-01-27T19:55:30.837Z,59.50
2019-01-27T19:58:14.638Z,59.50
2019-01-27T20:01:12.150Z,59.50
2019-01-27T20:04:05.413Z,59.50
2019-01-27T20:06:46.549Z,59.50
2019-01-27T20:09:25.623Z,59.50
2019-01-27T20:12:20.436Z,59.50
2019-01-27T20:15:00.825Z,59.40
2019-01-27T20:17:54.492Z,59.40
2019-01-27T20:20:38.868Z,59.50
2019-01-27T20:23:41.582Z,59.50
2019-01-27T20:26:22.791Z,59.50
2019-01-27T20:29:19.351Z,59.40
2019-01-27T20:32:01.623Z,59.40
2019-01-27T20:34:56.858Z,59.40
2019-01-27T20:37:46.696Z,59.40
2019-01-27T20:40:23.826Z,59.40
2019-01-27T20:43:17.320Z,59.50
2019-01-27T20:45:54.921Z,59.50
2019-01-27T20:48:38.596Z,59.60
2019-01-27T20:51:24.521Z,59.60
2019-01-27T20:54:24.804Z,59.60
2019-01-27T20:57:13.902Z,59.60
2019-01-27T20:59:59.507Z,59.60
2019-01-27T21:02:56.031Z,59.50
2019-01-27T21:05:37.057Z,59.60
2019-01-27T21:08:39.840Z,59.60
2019-01-27T21:11:42.192Z,59.60
2019-01-27T21:14:38.377Z,59.60
2019-01-27T21:17:17.033Z,59.60
2019-01-27T21:19:53.197Z,59.60
2019-01-27T21:22:24.595Z,59.80
2019-01-27T21:24:56.019Z,59.80
2019-01-27T21:27:27.673Z,59.80
2019-01-27T21:29:59.181Z,59.80
2019-01-27T21:32:30.553Z,59.80
2019-01-27T21:35:02.429Z,59.80
2019-01-27T21:37:33.993Z,59.80
2019-01-27T21:40:08.335Z,59.80
2019-01-27T21:42:47.047Z,59.80
2019-01-27T21:45:13.428Z,59.80
2019-01-27T21:47:44.923Z,59.80
2019-01-27T21:50:19.721Z,59.90
2019-01-27T21:52:51.428Z,60.00
2019-01-27T21:55:22.776Z,60.10
2019-01-27T21:57:54.180Z,60.20
2019-01-27T22:00:25.762Z,60.30
2019-01-27T22:02:57.204Z,60.30
2019-01-27T22:05:28.837Z,60.30
2019-01-27T22:08:00.199Z,60.30
2019-01-27T22:10:31.648Z,60.30
2019-01-27T22:13:03.098Z,60.40
2019-01-27T22:15:34.683Z,60.30
2019-01-27T22:18:06.257Z,60.30
2019-01-27T22:20:37.716Z,60.30
2019-01-27T22:23:09.069Z,60.30
2019-01-27T22:25:40.420Z,60.30
2019-01-27T22:28:12.101Z,60.30
2019-01-27T22:30:44.385Z,60.40
2019-01-27T22:33:16.140Z,60.30
2019-01-27T22:35:48.029Z,60.30
2019-01-27T22:38:19.891Z,60.30
2019-01-27T22:40:51.668Z,60.30
2019-01-27T22:43:23.216Z,60.30
2019-01-27T22:45:54.578Z,60.40
2019-01-27T22:48:26.018Z,60.50
2019-01-27T22:50:57.326Z,60.50
2019-01-27T22:53:29.306Z,60.50
2019-01-27T22:56:00.874Z,60.60
2019-01-27T22:58:32.290Z,60.60
2019-01-27T23:01:12.460Z,60.60
2019-01-27T23:03:46.123Z,60.80
2019-01-27T23:06:17.556Z,60.90
2019-01-27T23:08:49.940Z,60.90
2019-01-27T23:11:21.300Z,61.10
2019-01-27T23:13:52.724Z,61.20
2019-01-27T23:16:24.024Z,61.50
2019-01-27T23:18:55.472Z,61.80
2019-01-27T23:21:26.805Z,61.80
2019-01-27T23:23:58.212Z,61.90
2019-01-27T23:26:29.745Z,62.20
2019-01-27T23:29:02.917Z,62.20
2019-01-27T23:31:34.589Z,62.30
2019-01-27T23:34:05.974Z,62.50
2019-01-27T23:36:37.373Z,62.40
2019-01-27T23:39:10.130Z,62.40
2019-01-27T23:41:41.463Z,62.40
2019-01-27T23:44:12.914Z,62.40
2019-01-27T23:46:44.641Z,62.20
2019-01-27T23:49:16.197Z,62.10
2019-01-27T23:51:47.492Z,62.00
2019-01-27T23:54:18.986Z,62.00
2019-01-27T23:56:50.308Z,62.00
2019-01-27T23:59:21.648Z,62.10
